CheckWX is a tool to help pilots better visualize weather data.  It is not intended as a substitute for an official pre-flight weather briefing.

09:01:32 UTC

EEKE METAR
Kuressaare Airport
Kuressaare, Estonia
Current

1 hour ago

EEKE 180750Z 25014G24KT 210V280 9999 FEW012 SCT034 06/04 Q0998 R17/0///95
Observed
Feb-18 @ 07:50 UTC
Wind
  • 250° at 14 KTS
  • Gusting to 24 KTS
Visibility
10,000+ meters
Flight Rules
VFR
Cloud Levels
  • Few at 1,200' AGL
  • Scattered at 3,400' AGL
Temperature
C / 43°F
Dewpoint
C / 39°F
Humidity
87%
Altimeter
29.47" Hg
Pressure
997.92 hPa
Previous

2 hours ago

EEKE 180650Z 24017G30KT 220V290 9999 FEW013 SCT015 BKN030 05/03 Q0998 R17/0///95
Observed
Feb-18 @ 06:50 UTC
Wind
  • 240° at 17 KTS
  • Gusting to 30 KTS
Visibility
10,000+ meters
Flight Rules
MVFR
Cloud Levels
  • Few at 1,300' AGL
  • Scattered at 1,500' AGL
  • Broken at 3,000' AGL
Temperature
C / 41°F
Dewpoint
C / 37°F
Humidity
87%
Altimeter
29.47" Hg
Pressure
997.92 hPa
Previous

3 hours ago

EEKE 180550Z 24018G28KT 210V280 9999 FEW016 SCT026 BKN032 06/03 Q0997
Observed
Feb-18 @ 05:50 UTC
Wind
  • 240° at 18 KTS
  • Gusting to 28 KTS
Visibility
10,000+ meters
Flight Rules
VFR
Cloud Levels
  • Few at 1,600' AGL
  • Scattered at 2,600' AGL
  • Broken at 3,200' AGL
Temperature
C / 43°F
Dewpoint
C / 37°F
Humidity
81%
Altimeter
29.44" Hg
Pressure
996.92 hPa